Time;durP1;ratioP1;P1;durP2;ratioP2;P2;SDS_P1;SDS_P2;PMS_P1;PMS_P2;Temp;Humidity;BMP_temperature;BMP_pressure;BME280_temperature;BME280_humidity;BME280_pressure;Samples;Min_cycle;Max_cycle;Signal;HPM_P1;HPM_P2
2024/01/16 00:00:57;;;;;;;0.30;0.30;;;;;;;2.47;76.90;95517.00;5082238;28;20052;-68
2024/01/16 00:03:24;;;;;;;0.25;0.25;;;;;;;2.86;76.89;95578.84;5083755;28;20084;-68
2024/01/16 00:05:51;;;;;;;0.20;0.20;;;;;;;2.83;77.42;95574.06;5083830;28;20052;-68
2024/01/16 00:08:17;;;;;;;0.30;0.30;;;;;;;1.73;78.28;95414.25;5083761;28;20502;-68
2024/01/16 00:10:44;;;;;;;0.30;0.30;;;;;;;2.34;78.56;95529.22;5083919;28;20335;-68
2024/01/16 00:13:12;;;;;;;0.20;0.20;;;;;;;2.32;78.96;95509.66;5082523;28;20052;-68
2024/01/16 00:15:41;;;;;;;0.30;0.30;;;;;;;2.06;79.97;95471.16;5083714;28;20095;-68
2024/01/16 00:18:08;;;;;;;0.20;0.20;;;;;;;2.60;79.67;95571.22;5083797;28;20052;-69
2024/01/16 00:20:35;;;;;;;0.30;0.30;;;;;;;2.48;78.78;95563.09;5083812;28;20434;-70
2024/01/16 00:23:02;;;;;;;0.20;0.20;;;;;;;2.50;79.13;95573.66;5084025;28;20055;-70
2024/01/16 00:25:29;;;;;;;0.20;0.20;;;;;;;2.46;79.98;95594.66;5083408;28;20144;-69
2024/01/16 00:27:56;;;;;;;0.20;0.20;;;;;;;2.46;80.49;95575.53;5083943;28;20074;-68
2024/01/16 00:30:22;;;;;;;0.20;0.20;;;;;;;1.17;79.94;95382.88;5088220;28;20482;-69
2024/01/16 00:32:49;;;;;;;0.20;0.20;;;;;;;2.44;80.52;95577.81;5083649;28;20052;-68
2024/01/16 00:35:17;;;;;;;0.20;0.20;;;;;;;2.48;81.06;95581.44;5083693;28;20137;-69
2024/01/16 00:37:44;;;;;;;0.20;0.20;;;;;;;2.59;80.95;95571.56;5083540;28;20056;-69
2024/01/16 00:40:11;;;;;;;0.20;0.20;;;;;;;2.60;81.10;95573.13;5083662;28;20059;-70
2024/01/16 00:42:38;;;;;;;0.20;0.20;;;;;;;2.72;80.69;95562.09;5081889;28;20091;-69
2024/01/16 00:45:05;;;;;;;0.20;0.20;;;;;;;2.60;80.35;95552.06;5087451;28;20060;-70
2024/01/16 00:47:32;;;;;;;0.20;0.20;;;;;;;1.61;80.58;95397.19;5087412;28;20476;-70
2024/01/16 00:50:02;;;;;;;0.20;0.20;;;;;;;2.66;80.47;95563.50;5075216;28;20477;-69
2024/01/16 00:52:29;;;;;;;0.20;0.20;;;;;;;2.69;80.21;95557.34;5067068;28;20048;-70
2024/01/16 00:54:56;;;;;;;0.20;0.20;;;;;;;2.05;80.35;95505.09;5067382;28;20049;-68
2024/01/16 00:57:23;;;;;;;0.20;0.20;;;;;;;2.16;80.05;95503.41;5082822;28;20087;-69
2024/01/16 00:59:50;;;;;;;0.20;0.20;;;;;;;1.90;80.27;95440.41;5082894;28;20136;-69
2024/01/16 01:02:16;;;;;;;0.20;0.20;;;;;;;2.26;81.96;95560.22;5066800;28;20420;-69
2024/01/16 01:04:43;;;;;;;0.20;0.20;;;;;;;1.74;85.97;95565.16;5067209;28;20056;-69
2024/01/16 01:07:13;;;;;;;0.20;0.20;;;;;;;2.03;85.00;95556.53;5066742;28;20231;-69
2024/01/16 01:09:40;;;;;;;0.20;0.20;;;;;;;2.10;84.15;95552.06;5082079;28;20049;-69
2024/01/16 01:12:07;;;;;;;0.20;0.20;;;;;;;2.13;83.94;95553.28;5066639;28;20344;-69
2024/01/16 01:14:34;;;;;;;0.20;0.20;;;;;;;2.13;83.49;95521.31;5066759;28;20075;-68
2024/01/16 01:17:01;;;;;;;0.20;0.20;;;;;;;2.32;83.36;95537.75;5082029;28;20048;-68
2024/01/16 01:19:28;;;;;;;0.20;0.20;;;;;;;2.46;81.83;95543.56;5066744;28;20052;-69
2024/01/16 01:21:55;;;;;;;0.20;0.20;;;;;;;2.53;81.10;95538.25;5066028;28;20044;-69
2024/01/16 01:24:22;;;;;;;0.20;0.20;;;;;;;1.27;80.58;95338.69;5066385;28;20518;-69
2024/01/16 01:26:48;;;;;;;0.20;0.20;;;;;;;2.69;79.97;95539.00;5066110;28;20060;-68
2024/01/16 01:29:16;;;;;;;0.22;0.22;;;;;;;2.54;80.26;95528.91;5066231;28;20593;-69
2024/01/16 01:31:47;;;;;;;0.20;0.20;;;;;;;2.42;80.89;95526.28;5081788;28;20143;-67
2024/01/16 01:34:14;;;;;;;0.20;0.20;;;;;;;1.73;81.23;95424.38;5084760;28;20529;-67
2024/01/16 01:36:41;;;;;;;0.20;0.20;;;;;;;0.12;81.30;95151.31;5085304;28;20101;-69
2024/01/16 01:39:08;;;;;;;0.28;0.28;;;;;;;1.61;81.83;95405.38;5086725;28;20731;-69
2024/01/16 01:41:34;;;;;;;0.30;0.30;;;;;;;2.14;81.37;95497.50;5085958;28;20052;-69
2024/01/16 01:44:01;;;;;;;0.30;0.30;;;;;;;2.23;81.34;95509.06;5086310;28;20048;-68
2024/01/16 01:46:29;;;;;;;0.20;0.20;;;;;;;2.15;81.33;95499.88;5086636;28;20147;-68
2024/01/16 01:48:56;;;;;;;0.20;0.20;;;;;;;2.20;81.66;95517.94;5087188;28;20052;-68
2024/01/16 01:51:23;;;;;;;0.20;0.20;;;;;;;2.16;81.74;95511.59;5086876;28;20059;-69
2024/01/16 01:53:52;;;;;;;0.25;0.25;;;;;;;1.67;81.66;95439.44;5086683;28;20446;-68
2024/01/16 01:56:20;;;;;;;0.20;0.20;;;;;;;1.73;82.93;95525.34;5086426;28;20079;-69
2024/01/16 01:58:49;;;;;;;0.20;0.20;;;;;;;1.24;85.95;95498.34;5086650;28;20056;-69
2024/01/16 02:01:19;;;;;;;0.25;0.25;;;;;;;1.17;87.45;95508.28;5085925;28;20048;-68
2024/01/16 02:03:46;;;;;;;0.20;0.20;;;;;;;1.38;86.79;95515.09;5086023;28;20058;-69
2024/01/16 02:06:15;;;;;;;0.20;0.20;;;;;;;1.47;86.59;95512.97;5086027;28;20631;-68
2024/01/16 02:08:43;;;;;;;0.20;0.20;;;;;;;1.49;85.99;95518.88;5086450;28;20130;-68
2024/01/16 02:11:10;;;;;;;0.20;0.20;;;;;;;1.60;85.26;95510.19;5084616;28;20059;-68
2024/01/16 02:13:37;;;;;;;0.20;0.20;;;;;;;1.81;84.34;95513.44;5086340;28;20059;-69
2024/01/16 02:16:05;;;;;;;0.30;0.30;;;;;;;1.75;84.52;95523.84;5085599;28;20051;-68
2024/01/16 02:18:32;;;;;;;0.20;0.20;;;;;;;1.17;84.29;95405.44;5085562;28;20048;-68
2024/01/16 02:21:05;;;;;;;0.20;0.20;;;;;;;1.94;84.28;95517.69;5084234;28;20047;-68
2024/01/16 02:23:33;;;;;;;0.20;0.20;;;;;;;1.21;84.37;95403.63;5084289;28;20055;-68
2024/01/16 02:26:01;;;;;;;0.20;0.20;;;;;;;2.04;84.58;95525.34;5085154;28;20063;-70
2024/01/16 02:28:29;;;;;;;0.20;0.20;;;;;;;2.11;83.93;95523.59;5085876;28;20105;-68
2024/01/16 02:30:56;;;;;;;0.20;0.20;;;;;;;1.82;83.72;95465.94;5085005;28;20059;-69
2024/01/16 02:33:23;;;;;;;0.20;0.20;;;;;;;1.78;83.05;95451.38;5085773;28;20056;-70
2024/01/16 02:35:50;;;;;;;0.20;0.20;;;;;;;2.14;82.29;95513.88;5085571;28;20048;-70
2024/01/16 02:38:17;;;;;;;0.25;0.25;;;;;;;1.79;82.44;95453.75;5085386;28;20502;-69
2024/01/16 02:40:43;;;;;;;0.20;0.20;;;;;;;2.22;81.96;95521.91;5085270;28;20052;-70
2024/01/16 02:43:10;;;;;;;0.20;0.20;;;;;;;2.11;81.71;95509.13;5084017;28;20055;-70
2024/01/16 02:45:37;;;;;;;0.20;0.20;;;;;;;1.04;81.53;95333.06;5083757;28;20116;-71
2024/01/16 02:48:05;;;;;;;0.20;0.20;;;;;;;2.28;79.92;95503.28;5085434;28;20521;-68
2024/01/16 02:50:32;;;;;;;0.20;0.20;;;;;;;1.19;80.03;95326.81;5085193;28;20056;-69
2024/01/16 02:52:59;;;;;;;0.20;0.20;;;;;;;2.51;79.82;95523.34;5085195;28;20048;-70
2024/01/16 02:55:25;;;;;;;0.20;0.20;;;;;;;2.47;80.12;95536.13;5085496;28;20052;-69
2024/01/16 02:57:52;;;;;;;0.20;0.20;;;;;;;2.07;80.68;95513.72;5085197;28;20056;-68
2024/01/16 03:00:19;;;;;;;0.20;0.20;;;;;;;2.14;81.36;95539.25;5084775;28;20048;-70
2024/01/16 03:02:46;;;;;;;0.30;0.30;;;;;;;1.78;81.45;95516.88;5085001;28;20050;-69
2024/01/16 03:05:13;;;;;;;0.20;0.20;;;;;;;2.37;81.34;95572.22;5084715;28;20075;-70
2024/01/16 03:07:41;;;;;;;0.20;0.20;;;;;;;2.20;82.48;95564.34;5084313;28;20089;-69
2024/01/16 03:10:08;;;;;;;0.20;0.20;;;;;;;1.90;81.82;95525.78;5084823;28;20060;-70
2024/01/16 03:12:34;;;;;;;0.28;0.28;;;;;;;2.36;81.84;95559.69;5083404;28;20044;-69
2024/01/16 03:15:01;;;;;;;0.20;0.20;;;;;;;2.37;81.16;95566.75;5084780;28;20146;-69
2024/01/16 03:17:28;;;;;;;0.20;0.20;;;;;;;1.87;81.32;95509.31;5084753;28;20060;-69
2024/01/16 03:19:55;;;;;;;0.30;0.30;;;;;;;2.33;81.57;95576.78;5084756;28;20048;-69
2024/01/16 03:22:22;;;;;;;0.30;0.30;;;;;;;1.93;80.89;95492.31;5084197;28;20513;-69
2024/01/16 03:24:50;;;;;;;0.20;0.20;;;;;;;2.49;80.18;95563.91;5083687;28;20095;-69
2024/01/16 03:27:17;;;;;;;0.30;0.30;;;;;;;2.27;80.70;95562.63;5083994;28;20098;-69
2024/01/16 03:29:45;;;;;;;0.30;0.30;;;;;;;2.08;81.58;95553.53;5084453;28;21166;-69
2024/01/16 03:32:12;;;;;;;0.30;0.30;;;;;;;2.09;81.70;95560.56;5084209;28;20264;-69
2024/01/16 03:34:40;;;;;;;0.20;0.20;;;;;;;2.12;81.33;95566.13;5084478;28;20083;-67
2024/01/16 03:37:07;;;;;;;0.20;0.20;;;;;;;2.18;81.50;95574.84;5082701;28;20052;-67
2024/01/16 03:39:33;;;;;;;0.20;0.20;;;;;;;-0.16;81.15;95213.97;5083980;28;20054;-68
2024/01/16 03:42:00;;;;;;;0.20;0.20;;;;;;;1.53;81.75;95500.66;5083952;28;20047;-68
2024/01/16 03:44:27;;;;;;;0.20;0.20;;;;;;;1.62;82.21;95519.59;5084012;28;20052;-69
2024/01/16 03:46:55;;;;;;;0.20;0.20;;;;;;;2.19;82.03;95598.28;5082673;28;20083;-68
2024/01/16 03:49:21;;;;;;;0.30;0.30;;;;;;;2.11;81.60;95569.22;5083044;28;20048;-68
2024/01/16 03:51:48;;;;;;;0.20;0.20;;;;;;;1.89;81.58;95545.25;5084664;28;20055;-68
2024/01/16 03:54:15;;;;;;;0.20;0.20;;;;;;;1.81;81.03;95494.34;5082239;28;20082;-69
2024/01/16 03:56:42;;;;;;;0.20;0.20;;;;;;;2.49;80.99;95618.53;5084044;28;20056;-69
2024/01/16 03:59:09;;;;;;;0.20;0.20;;;;;;;2.44;80.76;95610.63;5084655;28;20052;-69
2024/01/16 04:01:36;;;;;;;0.20;0.20;;;;;;;2.02;80.80;95598.63;5084430;28;20258;-69
2024/01/16 04:04:06;;;;;;;0.20;0.20;;;;;;;2.03;82.06;95617.38;5084401;28;20066;-68
2024/01/16 04:06:33;;;;;;;0.20;0.20;;;;;;;2.29;82.01;95627.81;5084115;28;20066;-69
2024/01/16 04:09:00;;;;;;;0.30;0.30;;;;;;;2.31;82.18;95639.19;5084505;28;20422;-68
2024/01/16 04:11:27;;;;;;;0.20;0.20;;;;;;;2.32;81.92;95621.66;5082744;28;20051;-68
2024/01/16 04:13:54;;;;;;;0.20;0.20;;;;;;;2.05;82.71;95615.13;5083842;28;20434;-69
2024/01/16 04:16:21;;;;;;;0.20;0.20;;;;;;;1.96;84.25;95632.78;5082256;28;20052;-69
2024/01/16 04:18:48;;;;;;;0.20;0.20;;;;;;;2.08;84.01;95630.78;5085744;28;20059;-70
2024/01/16 04:21:15;;;;;;;0.20;0.20;;;;;;;2.01;83.48;95597.06;5088206;28;20059;-69
2024/01/16 04:23:46;;;;;;;0.20;0.20;;;;;;;2.36;82.82;95630.72;5088378;28;20055;-69
2024/01/16 04:26:13;;;;;;;0.20;0.20;;;;;;;2.15;82.59;95630.19;5087939;28;20101;-69
2024/01/16 04:28:41;;;;;;;0.25;0.25;;;;;;;2.00;83.96;95666.44;5088049;28;20478;-70
2024/01/16 04:31:07;;;;;;;0.22;0.22;;;;;;;2.05;84.69;95685.28;5088349;28;20538;-68
2024/01/16 04:33:34;;;;;;;0.20;0.20;;;;;;;1.89;84.61;95668.88;5086320;28;20079;-68
2024/01/16 04:36:01;;;;;;;0.20;0.20;;;;;;;1.91;85.63;95679.47;5087858;28;20047;-68
2024/01/16 04:38:28;;;;;;;0.22;0.22;;;;;;;1.71;85.19;95623.94;5088166;28;20062;-69
2024/01/16 04:40:55;;;;;;;0.20;0.20;;;;;;;2.09;84.75;95680.72;5087548;28;20069;-69
2024/01/16 04:43:22;;;;;;;0.20;0.20;;;;;;;2.06;84.30;95681.41;5087641;28;20052;-68
2024/01/16 04:45:49;;;;;;;0.20;0.20;;;;;;;1.77;83.94;95624.47;5086098;28;20084;-69
2024/01/16 04:48:16;;;;;;;0.20;0.20;;;;;;;2.00;83.90;95685.53;5087700;28;20101;-69
2024/01/16 04:50:45;;;;;;;0.20;0.20;;;;;;;2.23;83.88;95706.47;5072421;28;20446;-70
2024/01/16 04:53:12;;;;;;;0.20;0.20;;;;;;;2.36;83.66;95709.94;5067401;28;20045;-69
2024/01/16 04:55:39;;;;;;;0.20;0.20;;;;;;;2.39;83.12;95720.16;5067209;28;20053;-69
2024/01/16 04:58:06;;;;;;;0.20;0.20;;;;;;;1.48;83.05;95574.59;5066379;28;20285;-69
2024/01/16 05:00:32;;;;;;;0.20;0.20;;;;;;;2.04;83.05;95667.34;5065897;28;20059;-69
2024/01/16 05:02:59;;;;;;;0.20;0.20;;;;;;;2.19;83.32;95707.53;5067336;28;20048;-69
2024/01/16 05:05:26;;;;;;;0.20;0.20;;;;;;;2.24;83.72;95697.16;5066525;28;20144;-67
2024/01/16 05:07:55;;;;;;;0.30;0.30;;;;;;;2.32;83.30;95706.31;5067035;28;20051;-68
2024/01/16 05:10:22;;;;;;;0.20;0.20;;;;;;;2.22;83.78;95710.34;5066953;28;20052;-68
2024/01/16 05:12:49;;;;;;;0.20;0.20;;;;;;;2.18;83.78;95728.56;5067224;28;20049;-69
2024/01/16 05:15:16;;;;;;;0.20;0.20;;;;;;;0.32;84.38;95477.00;5065234;28;20056;-68
2024/01/16 05:17:42;;;;;;;0.20;0.20;;;;;;;1.73;84.62;95667.25;5065463;28;20048;-68
2024/01/16 05:20:10;;;;;;;0.20;0.20;;;;;;;2.20;85.04;95752.81;5066503;28;20056;-68
2024/01/16 05:22:38;;;;;;;0.20;0.20;;;;;;;2.17;85.11;95759.75;5066626;28;20044;-68
2024/01/16 05:25:09;;;;;;;0.20;0.20;;;;;;;1.91;84.74;95713.00;5066648;28;20067;-69
2024/01/16 05:27:36;;;;;;;0.22;0.22;;;;;;;2.37;84.23;95798.97;5064955;28;20058;-69
2024/01/16 05:30:03;;;;;;;0.20;0.20;;;;;;;2.28;84.07;95793.63;5066114;28;20048;-68
2024/01/16 05:32:30;;;;;;;0.20;0.20;;;;;;;1.71;83.40;95713.22;5064255;28;20060;-68
2024/01/16 05:34:57;;;;;;;0.20;0.20;;;;;;;2.03;85.77;95796.78;5044999;28;20056;-69
2024/01/16 05:37:24;;;;;;;0.20;0.20;;;;;;;1.47;86.27;95719.53;5045014;28;20053;-69
2024/01/16 05:39:51;;;;;;;0.20;0.20;;;;;;;1.39;86.07;95728.63;5046481;28;20527;-69
2024/01/16 05:42:18;;;;;;;0.20;0.20;;;;;;;1.93;86.72;95802.75;5046317;28;20148;-70
2024/01/16 05:44:45;;;;;;;0.20;0.20;;;;;;;2.02;85.96;95817.06;5045970;28;20526;-69
2024/01/16 05:47:11;;;;;;;0.20;0.20;;;;;;;2.07;86.34;95819.56;5045957;28;20573;-68
2024/01/16 05:49:39;;;;;;;0.20;0.20;;;;;;;2.09;86.13;95833.63;5046433;28;20139;-68
2024/01/16 05:52:06;;;;;;;0.20;0.20;;;;;;;1.96;86.75;95838.34;5046116;28;20059;-68
2024/01/16 05:54:33;;;;;;;0.28;0.28;;;;;;;-0.15;86.56;95493.00;5046243;28;20083;-68
2024/01/16 05:57:00;;;;;;;0.20;0.20;;;;;;;2.06;86.82;95828.88;5044743;28;20166;-68
2024/01/16 05:59:27;;;;;;;0.20;0.20;;;;;;;2.07;86.53;95836.72;5044570;28;20064;-69
2024/01/16 06:01:54;;;;;;;0.20;0.20;;;;;;;1.98;87.70;95846.19;5045982;28;20052;-69
2024/01/16 06:04:20;;;;;;;0.20;0.20;;;;;;;1.80;88.71;95883.88;5045744;28;20068;-68
2024/01/16 06:06:47;;;;;;;0.20;0.20;;;;;;;1.95;87.50;95879.63;5046043;28;20472;-69
2024/01/16 06:09:15;;;;;;;0.30;0.30;;;;;;;1.76;87.09;95865.78;5044247;28;20056;-69
2024/01/16 06:11:42;;;;;;;0.20;0.20;;;;;;;1.36;87.07;95811.91;5045797;28;20053;-69
2024/01/16 06:14:09;;;;;;;0.20;0.20;;;;;;;1.74;86.74;95859.88;5044284;28;20068;-69
2024/01/16 06:16:36;;;;;;;0.20;0.20;;;;;;;1.98;86.08;95908.97;5045214;28;20045;-68
2024/01/16 06:19:04;;;;;;;0.25;0.25;;;;;;;1.51;87.07;95841.25;5045941;28;20087;-70
2024/01/16 06:21:31;;;;;;;0.30;0.30;;;;;;;1.45;86.78;95820.78;5043951;28;20049;-69
2024/01/16 06:23:58;;;;;;;0.20;0.20;;;;;;;2.12;86.58;95936.75;5045767;28;20083;-68
2024/01/16 06:26:25;;;;;;;0.20;0.20;;;;;;;2.21;85.61;95935.47;5045092;28;20060;-69
2024/01/16 06:28:52;;;;;;;0.20;0.20;;;;;;;2.16;85.82;95932.19;5044192;28;20293;-68
2024/01/16 06:31:19;;;;;;;0.20;0.20;;;;;;;2.15;85.34;95936.06;5045354;28;20488;-69
2024/01/16 06:33:45;;;;;;;0.30;0.30;;;;;;;2.12;85.99;95934.00;5056242;28;20145;-69
2024/01/16 06:36:12;;;;;;;0.30;0.30;;;;;;;1.36;85.56;95797.47;5065324;28;20060;-69
2024/01/16 06:38:40;;;;;;;0.20;0.20;;;;;;;1.11;86.17;95736.72;5063962;28;20063;-69
2024/01/16 06:41:07;;;;;;;0.20;0.20;;;;;;;1.89;87.10;95856.44;5064144;28;20135;-69
2024/01/16 06:43:35;;;;;;;0.20;0.20;;;;;;;2.07;88.71;95901.47;5065351;28;20478;-71
2024/01/16 06:46:01;;;;;;;0.20;0.20;;;;;;;2.18;88.74;95906.09;5064712;28;20061;-69
2024/01/16 06:48:28;;;;;;;0.20;0.20;;;;;;;2.60;89.10;95925.69;5063937;28;20395;-71
2024/01/16 06:50:56;;;;;;;0.20;0.20;;;;;;;2.67;87.83;95953.25;5064565;28;20405;-70
2024/01/16 06:53:23;;;;;;;0.20;0.20;;;;;;;2.81;87.80;95948.97;5063702;28;20094;-71
2024/01/16 06:55:50;;;;;;;0.20;0.20;;;;;;;2.83;87.28;95962.28;5063687;28;20520;-69
2024/01/16 06:58:17;;;;;;;0.20;0.20;;;;;;;2.76;87.27;95973.03;5065022;28;20055;-70
2024/01/16 07:00:44;;;;;;;0.20;0.20;;;;;;;2.79;86.99;95989.53;5064709;28;20147;-68
2024/01/16 07:03:11;;;;;;;0.20;0.20;;;;;;;2.40;85.90;95957.50;5063232;28;20051;-69
2024/01/16 07:05:40;;;;;;;0.20;0.20;;;;;;;2.40;83.86;95949.31;5064544;28;20052;-69
2024/01/16 07:08:07;;;;;;;0.20;0.20;;;;;;;2.44;83.56;95938.50;5064646;28;20053;-70
2024/01/16 07:10:35;;;;;;;0.30;0.30;;;;;;;2.98;82.50;95986.97;5062304;28;20102;-70
2024/01/16 07:13:02;;;;;;;0.20;0.20;;;;;;;3.47;81.51;96027.78;5064124;28;20132;-70
2024/01/16 07:15:29;;;;;;;0.20;0.20;;;;;;;3.61;81.09;96026.25;5064186;28;20060;-70
2024/01/16 07:17:56;;;;;;;0.30;0.30;;;;;;;3.63;80.79;95984.81;5063849;28;20052;-70
2024/01/16 07:20:23;;;;;;;0.20;0.20;;;;;;;3.70;80.52;95972.09;5063727;28;20106;-69
2024/01/16 07:22:49;;;;;;;0.30;0.30;;;;;;;4.38;80.29;96028.22;5064149;28;20431;-68
2024/01/16 07:25:17;;;;;;;0.30;0.30;;;;;;;4.74;79.23;96034.53;5062926;28;20074;-70
2024/01/16 07:27:46;;;;;;;0.30;0.30;;;;;;;4.82;78.67;96011.59;5064829;28;20091;-71
2024/01/16 07:30:13;;;;;;;0.30;0.30;;;;;;;4.90;76.64;96032.53;5064040;28;20139;-70
2024/01/16 07:32:41;;;;;;;0.30;0.30;;;;;;;4.58;75.99;95947.59;5059622;28;20396;-69
2024/01/16 07:35:08;;;;;;;0.30;0.30;;;;;;;5.32;75.31;96033.44;5043972;28;20052;-70
2024/01/16 07:37:35;;;;;;;0.30;0.30;;;;;;;5.00;75.46;95980.63;5043986;28;20131;-68
2024/01/16 07:40:05;;;;;;;0.30;0.30;;;;;;;5.19;74.91;95997.09;5044388;28;20054;-68
2024/01/16 07:42:34;;;;;;;0.30;0.30;;;;;;;5.33;74.93;96029.53;5043677;28;20076;-70
2024/01/16 07:45:04;;;;;;;0.32;0.32;;;;;;;5.46;75.80;96052.94;5042615;28;20057;-68
2024/01/16 07:47:32;;;;;;;0.32;0.32;;;;;;;5.91;75.09;96066.84;5042570;28;20067;-69
2024/01/16 07:50:00;;;;;;;0.38;0.38;;;;;;;6.08;74.91;96069.13;5038391;28;20057;-68
2024/01/16 07:52:30;;;;;;;0.32;0.32;;;;;;;6.28;74.15;96081.66;5063685;28;20059;-70
2024/01/16 07:54:57;;;;;;;0.30;0.30;;;;;;;6.45;72.10;96078.41;5063687;28;20055;-70
2024/01/16 07:57:24;;;;;;;0.40;0.40;;;;;;;6.60;70.84;96090.44;5063994;28;20047;-70
2024/01/16 07:59:51;;;;;;;0.40;0.40;;;;;;;6.48;72.49;96098.91;5097487;28;20114;-70
2024/01/16 08:02:18;;;;;;;0.32;0.32;;;;;;;6.53;72.47;96099.38;5063778;28;20098;-69
2024/01/16 08:04:51;;;;;;;0.35;0.35;;;;;;;6.40;72.78;96087.00;5064482;28;20048;-68
2024/01/16 08:07:18;;;;;;;0.40;0.40;;;;;;;6.60;72.94;96116.00;5062547;28;20571;-70
2024/01/16 08:09:45;;;;;;;0.40;0.40;;;;;;;6.67;71.65;96127.13;5064049;28;20139;-68
2024/01/16 08:12:12;;;;;;;0.30;0.30;;;;;;;6.36;71.28;96077.06;5062310;28;20503;-68
2024/01/16 08:14:39;;;;;;;0.40;0.40;;;;;;;6.60;71.76;96126.22;5062745;28;20053;-69
2024/01/16 08:17:06;;;;;;;0.40;0.40;;;;;;;6.50;71.88;96127.63;5063998;28;20052;-70
2024/01/16 08:19:33;;;;;;;0.40;0.40;;;;;;;6.42;72.34;96131.41;5063718;28;20143;-70
2024/01/16 08:22:02;;;;;;;0.32;0.32;;;;;;;5.80;73.40;96082.28;5062503;28;20052;-69
2024/01/16 08:24:31;;;;;;;0.30;0.30;;;;;;;6.40;73.31;96147.50;5063537;28;20471;-70
2024/01/16 08:26:58;;;;;;;0.30;0.30;;;;;;;6.29;73.26;96154.75;5063216;28;20052;-70
2024/01/16 08:29:25;;;;;;;0.40;0.40;;;;;;;5.94;74.13;96116.34;5063408;28;20467;-70
2024/01/16 08:31:52;;;;;;;0.30;0.30;;;;;;;6.22;74.63;96165.59;5061819;28;20053;-69
2024/01/16 08:34:19;;;;;;;0.40;0.40;;;;;;;6.17;74.22;96105.41;5078185;28;20651;-70
2024/01/16 08:36:46;;;;;;;0.40;0.40;;;;;;;6.34;73.17;96102.19;5083777;28;20052;-69
2024/01/16 08:39:13;;;;;;;0.40;0.40;;;;;;;6.71;72.69;96155.50;5084146;28;20071;-69
2024/01/16 08:41:40;;;;;;;0.32;0.32;;;;;;;6.83;71.66;96130.53;5084035;28;20048;-69
2024/01/16 08:44:07;;;;;;;0.40;0.40;;;;;;;7.36;71.01;96170.72;5082795;28;20060;-70
2024/01/16 08:46:34;;;;;;;0.40;0.40;;;;;;;7.40;68.67;96144.03;5083511;28;20059;-69
2024/01/16 08:49:01;;;;;;;0.40;0.40;;;;;;;7.75;67.36;96182.31;5082543;28;20052;-69
2024/01/16 08:51:29;;;;;;;0.40;0.40;;;;;;;8.07;65.87;96193.75;5083439;28;20055;-68
2024/01/16 08:53:56;;;;;;;0.40;0.40;;;;;;;8.35;64.76;96194.94;5082259;28;20056;-70
2024/01/16 08:56:23;;;;;;;0.50;0.50;;;;;;;8.42;64.17;96188.69;5083554;28;20052;-69
2024/01/16 08:58:50;;;;;;;0.40;0.40;;;;;;;8.62;64.24;96187.34;5083834;28;20079;-69
2024/01/16 09:01:17;;;;;;;0.40;0.40;;;;;;;8.78;62.06;96152.00;5083491;28;20052;-68
2024/01/16 09:03:44;;;;;;;0.50;0.50;;;;;;;8.94;60.53;96120.22;5083618;28;20445;-68
2024/01/16 09:06:10;;;;;;;0.50;0.50;;;;;;;9.32;59.22;96141.03;5085368;28;20056;-70
2024/01/16 09:08:37;;;;;;;0.40;0.40;;;;;;;9.97;57.92;96213.75;5070222;28;20055;-69
2024/01/16 09:11:05;;;;;;;0.50;0.50;;;;;;;9.29;56.33;96050.59;5066548;28;20105;-67
2024/01/16 09:13:31;;;;;;;0.50;0.50;;;;;;;10.59;55.31;96212.44;5081741;28;20530;-69
2024/01/16 09:15:58;;;;;;;0.50;0.50;;;;;;;10.84;54.35;96209.78;5065637;28;20542;-69
2024/01/16 09:18:25;;;;;;;0.50;0.50;;;;;;;10.67;52.01;96202.19;5066963;28;20063;-69
2024/01/16 09:20:52;;;;;;;0.50;0.50;;;;;;;9.94;51.43;96214.47;5081899;28;20044;-68
2024/01/16 09:23:19;;;;;;;0.50;0.50;;;;;;;9.20;51.66;96088.81;5082145;28;20181;-68
2024/01/16 09:25:46;;;;;;;0.50;0.50;;;;;;;10.61;52.53;96226.72;5066267;28;20060;-68
2024/01/16 09:28:14;;;;;;;0.50;0.50;;;;;;;10.68;50.29;96215.63;5066310;28;20147;-68
2024/01/16 09:30:44;;;;;;;0.50;0.50;;;;;;;10.60;49.72;96197.44;5066615;28;20485;-68
2024/01/16 09:33:11;;;;;;;0.50;0.50;;;;;;;11.11;49.55;96218.53;5069649;28;20052;-69
2024/01/16 09:35:38;;;;;;;0.50;0.50;;;;;;;10.26;49.57;96079.06;5086991;28;20160;-69
2024/01/16 09:38:05;;;;;;;0.50;0.50;;;;;;;11.42;48.73;96226.06;5086836;28;20052;-68
2024/01/16 09:40:32;;;;;;;0.57;0.57;;;;;;;11.83;46.24;96230.88;5086203;28;20568;-70
2024/01/16 09:42:59;;;;;;;0.50;0.50;;;;;;;11.33;46.33;96228.47;5086268;28;20051;-69
2024/01/16 09:45:29;;;;;;;0.50;0.50;;;;;;;11.01;47.79;96233.16;5086439;28;20059;-68
2024/01/16 09:47:56;;;;;;;0.60;0.60;;;;;;;10.76;47.47;96232.28;5085117;28;20048;-68
2024/01/16 09:50:23;;;;;;;0.50;0.50;;;;;;;9.64;48.58;96172.41;5086324;28;20052;-68
2024/01/16 09:52:50;;;;;;;0.50;0.50;;;;;;;9.80;48.31;96136.97;5086167;28;20598;-69
2024/01/16 09:55:17;;;;;;;0.50;0.50;;;;;;;10.92;47.01;96238.28;5084407;28;20544;-69
2024/01/16 09:57:45;;;;;;;0.50;0.50;;;;;;;11.08;46.62;96238.72;5086069;28;20131;-69
2024/01/16 10:00:13;;;;;;;0.50;0.50;;;;;;;9.96;47.28;96107.00;5084679;28;20080;-68
2024/01/16 10:02:41;;;;;;;0.40;0.40;;;;;;;10.95;47.89;96235.53;5086370;28;20540;-68
2024/01/16 10:05:10;;;;;;;0.50;0.50;;;;;;;11.09;45.05;96154.38;5086082;28;20058;-69
2024/01/16 10:07:39;;;;;;;0.50;0.50;;;;;;;11.92;45.45;96227.66;5068009;28;20055;-69
2024/01/16 10:10:07;;;;;;;0.60;0.60;;;;;;;11.88;44.20;96235.22;5085841;28;20058;-67
2024/01/16 10:12:34;;;;;;;0.50;0.50;;;;;;;11.42;45.06;96240.75;5086132;28;20040;-68
2024/01/16 10:15:00;;;;;;;0.50;0.50;;;;;;;11.36;44.82;96245.09;5084195;28;20067;-70
2024/01/16 10:17:43;;;;;;;0.60;0.60;;;;;;;11.57;43.84;96205.50;5083535;28;20255;-68
2024/01/16 10:20:16;;;;;;;0.60;0.60;;;;;;;11.19;43.37;96250.63;5085698;28;20514;-68
2024/01/16 10:22:53;;;;;;;0.50;0.50;;;;;;;10.34;44.17;96255.84;5085435;28;20086;-68
2024/01/16 10:25:22;;;;;;;0.40;0.40;;;;;;;10.10;43.41;96217.78;5085507;28;20113;-68
2024/01/16 10:27:49;;;;;;;0.50;0.50;;;;;;;10.58;43.72;96266.25;5084066;28;20151;-67
2024/01/16 10:30:23;;;;;;;0.50;0.50;;;;;;;10.80;43.47;96269.09;5084429;28;20792;-68
2024/01/16 10:32:50;;;;;;;0.50;0.50;;;;;;;11.33;43.18;96267.28;5084116;28;20101;-68
2024/01/16 10:35:17;;;;;;;0.50;0.50;;;;;;;11.54;41.93;96234.03;5083873;28;20387;-69
2024/01/16 10:37:47;;;;;;;0.47;0.47;;;;;;;11.65;42.23;96268.13;5085400;28;20151;-68
2024/01/16 10:40:27;;;;;;;0.50;0.50;;;;;;;11.61;41.80;96175.75;5085703;28;20101;-68
2024/01/16 10:43:01;;;;;;;0.50;0.50;;;;;;;10.80;42.56;96148.00;5083868;28;20594;-68
2024/01/16 10:45:28;;;;;;;0.50;0.50;;;;;;;11.15;41.55;96205.47;5084636;28;20051;-69
2024/01/16 10:48:05;;;;;;;0.50;0.50;;;;;;;11.90;40.48;96266.13;5085291;28;20048;-70
2024/01/16 10:50:35;;;;;;;0.60;0.60;;;;;;;12.11;39.94;96268.88;5085336;28;20048;-70
2024/01/16 10:53:07;;;;;;;0.50;0.50;;;;;;;12.04;41.43;96271.69;5085281;28;20056;-69
2024/01/16 10:55:51;;;;;;;0.50;0.50;;;;;;;12.23;40.44;96274.03;5083740;28;20051;-70
2024/01/16 10:58:23;;;;;;;0.50;0.50;;;;;;;12.26;40.67;96267.66;5083361;28;20063;-69
2024/01/16 11:00:53;;;;;;;0.60;0.60;;;;;;;12.46;39.88;96263.25;5084993;28;20052;-68
2024/01/16 11:03:47;;;;;;;0.60;0.60;;;;;;;12.47;39.06;96270.38;5084924;28;20079;-68
2024/01/16 11:06:17;;;;;;;0.60;0.60;;;;;;;12.38;39.20;96285.91;5084827;28;20055;-68
2024/01/16 11:08:48;;;;;;;0.60;0.60;;;;;;;11.84;38.97;96217.75;5084624;28;20113;-68
2024/01/16 11:11:16;;;;;;;0.50;0.50;;;;;;;12.32;38.45;96290.25;5083379;28;20487;-68
2024/01/16 11:13:44;;;;;;;0.60;0.60;;;;;;;11.78;38.00;96205.47;5083393;28;20135;-68
2024/01/16 11:16:12;;;;;;;0.52;0.52;;;;;;;11.80;37.75;96223.34;5084274;28;20519;-70
2024/01/16 11:18:39;;;;;;;0.50;0.50;;;;;;;12.17;37.36;96295.06;5086804;28;20059;-70
2024/01/16 11:21:12;;;;;;;0.60;0.60;;;;;;;12.14;37.22;96295.84;5084687;28;20059;-69
2024/01/16 11:23:45;;;;;;;0.50;0.50;;;;;;;12.11;37.07;96307.75;5068403;28;20063;-69
2024/01/16 11:26:33;;;;;;;0.50;0.50;;;;;;;11.41;38.47;96257.78;5064071;28;20060;-69
2024/01/16 11:29:21;;;;;;;0.50;0.50;;;;;;;11.36;38.14;96321.94;5064596;28;20068;-70
2024/01/16 11:31:48;;;;;;;0.50;0.50;;;;;;;11.17;38.40;96325.06;5064238;28;20414;-69
2024/01/16 11:34:15;;;;;;;0.50;0.50;;;;;;;11.09;38.43;96323.44;5076007;28;20050;-68
2024/01/16 11:36:55;;;;;;;0.50;0.50;;;;;;;11.01;38.73;96328.16;5082476;28;20052;-69
2024/01/16 11:39:26;;;;;;;0.50;0.50;;;;;;;10.85;39.00;96333.25;5084183;28;20048;-69
2024/01/16 11:41:54;;;;;;;0.50;0.50;;;;;;;10.93;38.94;96342.38;5089348;28;20559;-69